Macau International Airport
VMMC : now visible

Airfield :











YOU CAN JOIN US ON...

 
LOGIN :

Register | Disclaimer

   EN    FR    IT 

 









Legend :    VFR   Marginal VFR   IFR   Intensive IFR   Very Intensive IFR
Visi :
Ceiling :
>= 8 km
>= 3000ft
5 to 8 km
1000 to 3000 ft
1500m to 5 km
500 to 1000 ft
800 to 1500m
200 to 500 ft
< 800m
< 200 ft
Symbols :   Thunderstorms  Fog  Heavy snow  Heavy precipitations  Wind > 20 kt






- Airport Elevation : 20 ft
- IATA code : MFM


VMMC - Macau International

CURRENT METAR :
  • 061200Z 19006KT 9999 -SHRA FEW008 SCT018 28/27 Q1006 NOSIG

EXPIRED METARs :
  • 061130Z 20007KT 9999 -SHRA FEW008 SCT016 28/27 Q1006 NOSIG
  • 061100Z 18008KT 9999 -SHRA FEW008 SCT016 28/27 Q1006 NOSIG
  • 061030Z 15010KT 9999 -SHRA FEW008 SCT018 28/27 Q1005 NOSIG
  • 061000Z 16011KT 9999 -SHRA FEW008 SCT018 28/26 Q1005 RETS TEMPO 4000 -TSRA
  • 060930Z 15012KT 9000 -TSRA FEW008CB SCT015 28/26 Q1005 RERA TEMPO 4000 -TSRA

TAF TAF VMMC
Valid from the 06 at 12:00 until the 07 at 18:00 UTC


061100Z 0612/0718 18010KT 9999 FEW010 SCT020
TEMPO 0612/0618 3500 TSRA FEW010CB SCT015
TEMPO 0618/0702 VRB20G30KT 2000 +TSRA FEW008 SCT010CB BKN035
TEMPO 0702/0706 3500 SHRA FEW010CB SCT015
TEMPO 0706/0710 VRB20G30KT 2500 TSRA FEW008 SCT010CB BKN035
ZGZU FIR / Asia



MET'MAP, your aeronautical weather chart ! - Copyright ORBIFLY December 2007 - Disclaimer

ORBIFLY MET'MAP TEAM :

Programming & Development : Alexandra Zaïnal
Concept & original design : Baudouin d'Aumeries
Assistance for programming : Marc-Olivier Méhu
Technical & hardware support : Manuel Goepfert

Contact : metmap@orbifly.com




SOURCES & CREDITS :

   NOAA       Earth
Advisory